createdAt,value
2018-09-30T00:00:23.188Z,101857.88
2018-09-30T00:02:51.689Z,101852.98
2018-09-30T00:05:20.194Z,101846.27
2018-09-30T00:07:48.734Z,101848.45
2018-09-30T00:10:17.379Z,101842.76
2018-09-30T00:12:45.893Z,101836.38
2018-09-30T00:15:15.111Z,101833.37
2018-09-30T00:17:44.101Z,101824.00
2018-09-30T00:20:12.641Z,101814.24
2018-09-30T00:22:41.211Z,101811.05
2018-09-30T00:25:14.857Z,101808.23
2018-09-30T00:27:43.424Z,101807.90
2018-09-30T00:30:11.988Z,101803.20
2018-09-30T00:32:40.519Z,101803.37
2018-09-30T00:35:09.054Z,101798.18
2018-09-30T00:37:37.622Z,101794.16
2018-09-30T00:40:06.288Z,101790.97
2018-09-30T00:42:34.858Z,101790.78
2018-09-30T00:45:04.476Z,101790.09
2018-09-30T00:47:33.042Z,101788.58
2018-09-30T00:50:04.540Z,101782.73
2018-09-30T00:52:33.045Z,101779.37
2018-09-30T00:55:02.814Z,101777.68
2018-09-30T00:57:31.974Z,101764.31
2018-09-30T01:00:00.494Z,101765.98
2018-09-30T01:02:28.998Z,101757.45
2018-09-30T01:04:57.534Z,101755.61
2018-09-30T01:07:26.033Z,101753.58
2018-09-30T01:09:54.594Z,101754.09
2018-09-30T01:12:23.089Z,101753.92
2018-09-30T01:14:51.607Z,101752.23
2018-09-30T01:17:20.235Z,101753.06
2018-09-30T01:19:48.746Z,101750.21
2018-09-30T01:22:17.296Z,101750.88
2018-09-30T01:24:45.821Z,101750.88
2018-09-30T01:27:14.343Z,101743.34
2018-09-30T01:29:43.538Z,101738.47
2018-09-30T01:32:12.053Z,101729.43
2018-09-30T01:34:40.588Z,101726.94
2018-09-30T01:37:11.060Z,101720.05
2018-09-30T01:39:39.624Z,101714.69
2018-09-30T01:42:08.193Z,101709.36
2018-09-30T01:44:37.089Z,101710.52
2018-09-30T01:47:05.605Z,101711.34
2018-09-30T01:49:34.137Z,101709.86
2018-09-30T01:52:14.109Z,101716.19
2018-09-30T01:54:42.633Z,101710.00
2018-09-30T01:57:11.181Z,101708.65
2018-09-30T01:59:39.900Z,101702.29
2018-09-30T02:02:08.393Z,101703.95
2018-09-30T02:04:36.922Z,101707.29
2018-09-30T02:07:05.582Z,101706.95
2018-09-30T02:09:34.121Z,101702.27
2018-09-30T02:12:03.999Z,101697.59
2018-09-30T02:14:32.786Z,101692.89
2018-09-30T02:17:02.742Z,101697.88
2018-09-30T02:19:31.483Z,101686.22
2018-09-30T02:22:00.000Z,101680.69
2018-09-30T02:24:28.561Z,101678.68
2018-09-30T02:26:57.105Z,101680.86
2018-09-30T02:29:25.620Z,101677.83
2018-09-30T02:31:54.149Z,101680.19
2018-09-30T02:34:22.669Z,101675.67
2018-09-30T02:36:51.237Z,101683.03
2018-09-30T02:39:19.841Z,101681.49
2018-09-30T02:41:48.371Z,101665.27
2018-09-30T02:44:16.893Z,101665.41
2018-09-30T02:46:45.418Z,101667.92
2018-09-30T02:49:13.951Z,101661.02
2018-09-30T02:51:42.818Z,101657.86
2018-09-30T02:54:11.314Z,101655.02
2018-09-30T02:56:39.835Z,101655.20
2018-09-30T02:59:08.611Z,101652.02
2018-09-30T03:01:37.408Z,101652.83
2018-09-30T03:04:06.230Z,101649.81
2018-09-30T03:06:39.797Z,101642.26
2018-09-30T03:09:18.085Z,101643.27
2018-09-30T03:11:46.673Z,101647.61
2018-09-30T03:14:16.147Z,101644.06
2018-09-30T03:16:49.594Z,101648.38
2018-09-30T03:19:18.117Z,101639.66
2018-09-30T03:21:46.703Z,101640.98
2018-09-30T03:24:15.273Z,101640.80
2018-09-30T03:26:43.883Z,101633.09
2018-09-30T03:29:12.427Z,101630.80
2018-09-30T03:31:40.989Z,101628.42
2018-09-30T03:34:09.545Z,101627.05
2018-09-30T03:36:38.160Z,101633.47
2018-09-30T03:39:08.163Z,101632.43
2018-09-30T03:41:36.809Z,101628.91
2018-09-30T03:44:05.566Z,101624.44
2018-09-30T03:46:34.130Z,101621.53
2018-09-30T03:49:04.125Z,101623.19
2018-09-30T03:51:32.611Z,101626.70
2018-09-30T03:54:03.114Z,101629.38
2018-09-30T03:56:32.506Z,101624.03
2018-09-30T03:59:02.785Z,101619.81
2018-09-30T04:01:31.319Z,101617.84
2018-09-30T04:03:59.856Z,101619.20
2018-09-30T04:06:28.369Z,101620.69
2018-09-30T04:08:57.188Z,101612.29
2018-09-30T04:11:25.709Z,101611.47
2018-09-30T04:13:54.753Z,101613.80
2018-09-30T04:16:23.253Z,101611.38
2018-09-30T04:18:51.777Z,101608.21
2018-09-30T04:21:20.550Z,101611.88
2018-09-30T04:23:49.082Z,101613.88
2018-09-30T04:26:17.610Z,101606.27
2018-09-30T04:28:46.110Z,101599.20
2018-09-30T04:31:14.652Z,101608.84
2018-09-30T04:33:43.145Z,101600.94
2018-09-30T04:36:11.949Z,101593.09
2018-09-30T04:38:40.441Z,101592.46
2018-09-30T04:41:09.350Z,101595.02
2018-09-30T04:43:37.919Z,101589.75
2018-09-30T04:46:06.724Z,101592.98
2018-09-30T04:48:35.277Z,101589.96
2018-09-30T04:51:05.515Z,101587.71
2018-09-30T04:53:34.405Z,101588.17
2018-09-30T04:56:04.514Z,101594.84
2018-09-30T04:58:33.003Z,101600.00
2018-09-30T05:01:02.691Z,101589.89
2018-09-30T05:03:31.421Z,101580.99
2018-09-30T05:05:59.907Z,101587.05
2018-09-30T05:08:28.471Z,101589.68
2018-09-30T05:10:56.973Z,101587.98
2018-09-30T05:13:25.498Z,101587.98
2018-09-30T05:15:54.093Z,101586.57
2018-09-30T05:18:22.657Z,101594.14
2018-09-30T05:20:51.208Z,101598.59
2018-09-30T05:23:19.871Z,101589.55
2018-09-30T05:25:48.808Z,101584.17
2018-09-30T05:28:17.251Z,101585.14
2018-09-30T05:30:45.801Z,101580.78
2018-09-30T05:33:14.404Z,101582.03
2018-09-30T05:35:42.912Z,101578.69
2018-09-30T05:38:11.479Z,101575.75
2018-09-30T05:40:40.444Z,101571.30
2018-09-30T05:43:08.969Z,101568.23
2018-09-30T05:45:37.506Z,101567.17
2018-09-30T05:48:06.113Z,101560.34
2018-09-30T05:50:34.672Z,101558.06
2018-09-30T05:53:04.912Z,101559.66
2018-09-30T05:55:33.552Z,101557.48
2018-09-30T05:58:03.790Z,101561.94
2018-09-30T06:00:32.298Z,101556.28
2018-09-30T06:03:00.782Z,101555.22
2018-09-30T06:05:29.287Z,101544.08
2018-09-30T06:07:57.887Z,101549.31
2018-09-30T06:10:26.514Z,101551.31
2018-09-30T06:12:55.039Z,101548.31
2018-09-30T06:15:23.877Z,101545.36
2018-09-30T06:17:52.413Z,101544.52
2018-09-30T06:20:20.962Z,101548.20
2018-09-30T06:22:49.762Z,101542.17
2018-09-30T06:25:18.248Z,101541.00
2018-09-30T06:27:46.857Z,101542.17
2018-09-30T06:30:15.389Z,101549.35
2018-09-30T06:32:43.985Z,101547.51
2018-09-30T06:35:12.488Z,101554.91
2018-09-30T06:37:41.080Z,101556.42
2018-09-30T06:40:10.008Z,101554.63
2018-09-30T06:42:38.557Z,101563.30
2018-09-30T06:45:07.140Z,101562.02
2018-09-30T06:47:35.628Z,101558.16
2018-09-30T06:50:05.707Z,101555.13
2018-09-30T06:52:34.231Z,101560.80
2018-09-30T06:55:04.521Z,101558.25
2018-09-30T06:57:33.158Z,101559.56
2018-09-30T07:00:02.801Z,101560.18
2018-09-30T07:02:31.556Z,101558.95
2018-09-30T07:05:00.531Z,101557.70
2018-09-30T07:07:29.009Z,101561.63
2018-09-30T07:09:57.544Z,101553.50
2018-09-30T07:12:26.032Z,101549.90
2018-09-30T07:14:54.570Z,101549.84
2018-09-30T07:17:23.336Z,101545.72
2018-09-30T07:19:52.193Z,101551.16
2018-09-30T07:22:20.719Z,101549.73
2018-09-30T07:24:49.262Z,101544.20
2018-09-30T07:27:17.752Z,101549.19
2018-09-30T07:29:46.583Z,101551.31
2018-09-30T07:32:15.174Z,101548.62
2018-09-30T07:34:43.701Z,101549.91
2018-09-30T07:37:12.275Z,101546.42
2018-09-30T07:39:40.790Z,101546.92
2018-09-30T07:42:11.066Z,101551.20
2018-09-30T07:44:39.585Z,101536.91
2018-09-30T07:47:08.137Z,101539.80
2018-09-30T07:49:36.679Z,101546.75
2018-09-30T07:52:05.936Z,101540.77
2018-09-30T07:54:34.441Z,101538.84
2018-09-30T07:57:05.644Z,101541.95
2018-09-30T07:59:34.172Z,101532.20
2018-09-30T08:02:03.727Z,101532.78
2018-09-30T08:04:32.337Z,101527.70
2018-09-30T08:07:00.962Z,101520.95
2018-09-30T08:09:29.478Z,101528.11
2018-09-30T08:11:58.050Z,101530.73
2018-09-30T08:14:26.570Z,101532.75
2018-09-30T08:16:55.496Z,101531.59
2018-09-30T08:19:24.172Z,101528.93
2018-09-30T08:21:52.792Z,101532.17
2018-09-30T08:24:21.495Z,101526.41
2018-09-30T08:26:49.921Z,101524.41
2018-09-30T08:29:18.484Z,101529.20
2018-09-30T08:31:47.676Z,101515.93
2018-09-30T08:34:16.176Z,101527.65
2018-09-30T08:36:44.728Z,101526.13
2018-09-30T08:39:13.913Z,101523.20
2018-09-30T08:41:42.614Z,101521.75
2018-09-30T08:44:11.222Z,101512.90
2018-09-30T08:46:39.684Z,101516.86
2018-09-30T08:49:08.240Z,101508.23
2018-09-30T08:51:36.751Z,101503.51
2018-09-30T08:54:05.962Z,101502.48
2018-09-30T08:56:34.464Z,101500.69
2018-09-30T08:59:05.389Z,101501.30
2018-09-30T09:01:33.950Z,101504.57
2018-09-30T09:04:05.036Z,101507.66
2018-09-30T09:06:33.517Z,101501.73
2018-09-30T09:09:05.078Z,101502.79
2018-09-30T09:11:33.615Z,101495.69
2018-09-30T09:14:04.292Z,101489.03
2018-09-30T09:16:32.852Z,101487.35
2018-09-30T09:19:04.591Z,101476.59
2018-09-30T09:21:33.121Z,101465.16
2018-09-30T09:24:02.811Z,101466.98
2018-09-30T09:26:31.333Z,101461.63
2018-09-30T09:28:59.848Z,101462.31
2018-09-30T09:31:28.542Z,101464.45
2018-09-30T09:33:57.086Z,101461.84
2018-09-30T09:36:25.593Z,101456.77
2018-09-30T09:38:54.131Z,101454.86
2018-09-30T09:41:22.657Z,101446.52
2018-09-30T09:43:51.236Z,101443.82
2018-09-30T09:46:19.744Z,101438.62
2018-09-30T09:48:48.442Z,101432.80
2018-09-30T09:51:16.943Z,101432.53
2018-09-30T09:53:45.519Z,101431.80
2018-09-30T09:56:14.608Z,101416.61
2018-09-30T09:58:43.141Z,101423.47
2018-09-30T10:01:11.716Z,101413.22
2018-09-30T10:03:40.281Z,101417.50
2018-09-30T10:06:08.828Z,101415.18
2018-09-30T10:08:37.457Z,101410.70
2018-09-30T10:11:05.986Z,101420.11
2018-09-30T10:13:34.479Z,101411.59
2018-09-30T10:16:04.858Z,101407.15
2018-09-30T10:18:33.409Z,101403.06
2018-09-30T10:21:03.305Z,101407.15
2018-09-30T10:23:35.338Z,101404.11
2018-09-30T10:26:06.556Z,101399.75
2018-09-30T10:28:35.103Z,101406.86
2018-09-30T10:31:06.644Z,101392.64
2018-09-30T10:33:35.182Z,101390.09
2018-09-30T10:36:05.927Z,101389.38
2018-09-30T10:38:34.766Z,101387.70
2018-09-30T10:41:04.733Z,101380.13
2018-09-30T10:43:33.247Z,101387.19
2018-09-30T10:46:04.968Z,101389.05
2018-09-30T10:48:33.666Z,101377.94
2018-09-30T10:51:03.777Z,101384.34
2018-09-30T10:53:32.349Z,101380.17
2018-09-30T10:56:03.930Z,101376.73
2018-09-30T10:58:32.410Z,101377.66
2018-09-30T11:01:00.928Z,101368.02
2018-09-30T11:03:29.577Z,101371.84
2018-09-30T11:05:58.076Z,101366.70
2018-09-30T11:08:26.594Z,101368.82
2018-09-30T11:10:55.153Z,101363.86
2018-09-30T11:13:23.679Z,101361.81
2018-09-30T11:15:52.189Z,101358.33
2018-09-30T11:18:20.738Z,101360.24
2018-09-30T11:20:49.255Z,101355.02
2018-09-30T11:23:17.849Z,101338.27
2018-09-30T11:25:46.492Z,101340.94
2018-09-30T11:28:14.978Z,101346.75
2018-09-30T11:30:43.559Z,101333.61
2018-09-30T11:33:12.573Z,101328.77
2018-09-30T11:35:41.120Z,101326.77
2018-09-30T11:38:09.939Z,101325.14
2018-09-30T11:40:38.427Z,101329.87
2018-09-30T11:43:06.974Z,101323.32
2018-09-30T11:45:35.518Z,101329.20
2018-09-30T11:48:05.145Z,101325.17
2018-09-30T11:50:33.743Z,101320.08
2018-09-30T11:53:04.533Z,101314.81
2018-09-30T11:55:33.298Z,101314.64
2018-09-30T11:58:05.130Z,101309.60
2018-09-30T12:00:33.957Z,101300.60
2018-09-30T12:03:04.751Z,101299.73
2018-09-30T12:05:33.307Z,101295.16
2018-09-30T12:08:02.862Z,101297.01
2018-09-30T12:10:31.389Z,101295.43
2018-09-30T12:12:59.889Z,101290.23
2018-09-30T12:15:28.691Z,101279.80
2018-09-30T12:17:57.344Z,101267.77
2018-09-30T12:20:25.961Z,101265.94
2018-09-30T12:22:54.516Z,101258.80
2018-09-30T12:25:23.021Z,101251.94
2018-09-30T12:27:51.728Z,101252.10
2018-09-30T12:30:20.277Z,101244.55
2018-09-30T12:32:48.798Z,101247.41
2018-09-30T12:35:17.302Z,101237.57
2018-09-30T12:37:45.912Z,101235.00
2018-09-30T12:40:14.432Z,101230.52
2018-09-30T12:42:43.266Z,101225.48
2018-09-30T12:45:11.790Z,101231.60
2018-09-30T12:47:40.576Z,101226.17
2018-09-30T12:50:09.184Z,101232.16
2018-09-30T12:52:37.681Z,101225.02
2018-09-30T12:55:06.375Z,101223.45
2018-09-30T12:57:34.956Z,101213.73
2018-09-30T13:00:05.409Z,101217.52
2018-09-30T13:02:34.023Z,101219.08
2018-09-30T13:05:03.866Z,101220.92
2018-09-30T13:07:32.388Z,101218.57
2018-09-30T13:10:04.698Z,101219.25
2018-09-30T13:12:33.269Z,101212.23
2018-09-30T13:15:03.289Z,101209.56
2018-09-30T13:17:31.819Z,101199.15
2018-09-30T13:20:00.366Z,101204.48
2018-09-30T13:22:28.958Z,101202.39
2018-09-30T13:24:57.496Z,101190.70
2018-09-30T13:27:26.038Z,101192.58
2018-09-30T13:29:54.735Z,101190.06
2018-09-30T13:32:23.295Z,101182.03
2018-09-30T13:34:51.861Z,101176.99
2018-09-30T13:37:20.496Z,101174.47
2018-09-30T13:39:49.094Z,101171.73
2018-09-30T13:42:17.689Z,101166.67
2018-09-30T13:44:46.179Z,101174.88
2018-09-30T13:47:14.703Z,101165.27
2018-09-30T13:49:43.213Z,101163.98
2018-09-30T13:52:11.859Z,101162.22
2018-09-30T13:54:40.377Z,101154.53
2018-09-30T13:57:08.986Z,101157.73
2018-09-30T13:59:37.756Z,101160.25
2018-09-30T14:02:06.347Z,101159.42
2018-09-30T14:04:34.877Z,101162.21
2018-09-30T14:07:05.338Z,101163.61
2018-09-30T14:09:34.257Z,101156.97
2018-09-30T14:12:04.456Z,101157.80
2018-09-30T14:14:33.402Z,101155.03
2018-09-30T14:17:03.836Z,101155.34
2018-09-30T14:19:32.333Z,101154.22
2018-09-30T14:22:00.956Z,101150.43
2018-09-30T14:24:29.480Z,101153.38
2018-09-30T14:26:58.253Z,101152.13
2018-09-30T14:29:26.819Z,101146.56
2018-09-30T14:31:55.494Z,101142.48
2018-09-30T14:34:24.056Z,101141.67
2018-09-30T14:36:52.610Z,101143.56
2018-09-30T14:39:21.118Z,101141.13
2018-09-30T14:41:49.650Z,101142.76
2018-09-30T14:44:18.182Z,101138.64
2018-09-30T14:46:46.841Z,101138.92
2018-09-30T14:49:15.369Z,101138.34
2018-09-30T14:51:43.953Z,101135.63
2018-09-30T14:54:12.661Z,101133.62
2018-09-30T14:56:41.538Z,101131.77
2018-09-30T14:59:10.069Z,101132.63
2018-09-30T15:01:38.593Z,101134.54
2018-09-30T15:04:07.149Z,101126.58
2018-09-30T15:06:35.868Z,101129.58
2018-09-30T15:09:08.048Z,101124.33
2018-09-30T15:11:37.553Z,101117.69
2018-09-30T15:14:06.225Z,101120.28
2018-09-30T15:16:34.816Z,101121.93
2018-09-30T15:19:04.391Z,101118.91
2018-09-30T15:21:32.951Z,101123.80
2018-09-30T15:24:03.111Z,101128.97
2018-09-30T15:26:31.626Z,101135.66
2018-09-30T15:29:00.527Z,101136.34
2018-09-30T15:31:29.109Z,101133.03
2018-09-30T15:33:57.647Z,101133.75
2018-09-30T15:36:26.511Z,101134.77
2018-09-30T15:38:55.086Z,101135.30
2018-09-30T15:41:23.698Z,101127.91
2018-09-30T15:43:52.221Z,101137.56
2018-09-30T15:46:20.765Z,101124.58
2018-09-30T15:48:49.655Z,101129.70
2018-09-30T15:51:18.155Z,101123.84
2018-09-30T15:53:46.663Z,101121.43
2018-09-30T15:56:15.259Z,101125.21
2018-09-30T15:58:43.874Z,101137.39
2018-09-30T16:01:12.427Z,101125.58
2018-09-30T16:03:44.071Z,101120.05
2018-09-30T16:06:12.585Z,101117.07
2018-09-30T16:08:41.140Z,101113.03
2018-09-30T16:11:09.697Z,101120.22
2018-09-30T16:13:38.228Z,101113.39
2018-09-30T16:16:06.909Z,101124.27
2018-09-30T16:18:35.447Z,101117.00
2018-09-30T16:21:05.700Z,101125.51
2018-09-30T16:23:34.853Z,101124.95
2018-09-30T16:26:05.390Z,101117.22
2018-09-30T16:28:33.898Z,101117.48
2018-09-30T16:31:03.834Z,101116.68
2018-09-30T16:33:32.365Z,101111.44
2018-09-30T16:36:00.850Z,101110.95
2018-09-30T16:38:29.449Z,101114.03
2018-09-30T16:40:57.956Z,101120.21
2018-09-30T16:43:26.542Z,101120.80
2018-09-30T16:45:55.138Z,101118.92
2018-09-30T16:48:23.667Z,101121.52
2018-09-30T16:50:52.243Z,101121.87
2018-09-30T16:53:20.801Z,101123.66
2018-09-30T16:55:49.312Z,101127.36
2018-09-30T16:58:18.013Z,101129.11
2018-09-30T17:00:46.808Z,101133.11
2018-09-30T17:03:15.391Z,101135.74
2018-09-30T17:05:43.940Z,101140.53
2018-09-30T17:08:12.486Z,101139.53
2018-09-30T17:10:41.071Z,101146.88
2018-09-30T17:13:09.631Z,101143.72
2018-09-30T17:15:38.153Z,101138.66
2018-09-30T17:18:07.033Z,101142.33
2018-09-30T17:20:35.604Z,101147.22
2018-09-30T17:23:05.181Z,101148.13
2018-09-30T17:25:33.905Z,101146.25
2018-09-30T17:28:04.222Z,101151.92
2018-09-30T17:30:32.796Z,101149.03
2018-09-30T17:33:03.128Z,101146.47
2018-09-30T17:35:31.780Z,101148.89
2018-09-30T17:38:00.404Z,101151.19
2018-09-30T17:40:28.901Z,101149.98
2018-09-30T17:42:57.428Z,101154.38
2018-09-30T17:45:26.008Z,101159.37
2018-09-30T17:47:54.569Z,101151.34
2018-09-30T17:50:23.109Z,101159.36
2018-09-30T17:52:51.668Z,101158.08
2018-09-30T17:55:20.229Z,101156.49
2018-09-30T17:57:48.804Z,101156.67
2018-09-30T18:00:17.390Z,101159.78
2018-09-30T18:02:46.234Z,101153.16
2018-09-30T18:05:14.756Z,101149.84
2018-09-30T18:07:43.286Z,101154.23
2018-09-30T18:10:11.859Z,101159.81
2018-09-30T18:12:40.453Z,101159.59
2018-09-30T18:15:09.079Z,101160.75
2018-09-30T18:17:37.700Z,101169.67
2018-09-30T18:20:07.101Z,101169.95
2018-09-30T18:22:35.693Z,101160.61
2018-09-30T18:25:05.218Z,101159.88
2018-09-30T18:27:33.838Z,101153.02
2018-09-30T18:30:03.705Z,101144.04
2018-09-30T18:32:32.253Z,101147.75
2018-09-30T18:35:00.846Z,101141.27
2018-09-30T18:37:29.429Z,101139.49
2018-09-30T18:39:58.411Z,101134.80
2018-09-30T18:42:27.846Z,101132.70
2018-09-30T18:44:56.489Z,101136.25
2018-09-30T18:47:25.302Z,101134.99
2018-09-30T18:49:53.929Z,101133.68
2018-09-30T18:52:22.574Z,101125.89
2018-09-30T18:54:51.579Z,101128.76
2018-09-30T18:57:20.258Z,101129.97
2018-09-30T18:59:48.844Z,101135.83
2018-09-30T19:02:17.891Z,101132.09
2018-09-30T19:04:46.501Z,101132.37
2018-09-30T19:07:15.038Z,101129.95
2018-09-30T19:09:43.715Z,101137.14
2018-09-30T19:12:12.716Z,101134.96
2018-09-30T19:14:41.280Z,101139.38
2018-09-30T19:17:09.862Z,101143.88
2018-09-30T19:19:38.561Z,101138.98
2018-09-30T19:22:08.291Z,101133.27
2018-09-30T19:24:36.873Z,101135.13
2018-09-30T19:27:05.585Z,101131.14
2018-09-30T19:29:34.524Z,101125.34
2018-09-30T19:32:04.386Z,101127.43
2018-09-30T19:34:33.004Z,101119.36
2018-09-30T19:37:02.886Z,101122.59
2018-09-30T19:39:31.465Z,101121.99
2018-09-30T19:42:00.385Z,101124.42
2018-09-30T19:44:28.982Z,101120.05
2018-09-30T19:46:57.557Z,101120.66
2018-09-30T19:49:26.181Z,101123.38
2018-09-30T19:51:54.815Z,101123.23
2018-09-30T19:54:23.412Z,101125.88
2018-09-30T19:56:51.978Z,101125.03
2018-09-30T19:59:20.618Z,101127.89
2018-09-30T20:01:49.926Z,101124.00
2018-09-30T20:04:18.597Z,101122.72
2018-09-30T20:06:49.965Z,101128.16
2018-09-30T20:09:19.628Z,101119.19
2018-09-30T20:11:48.214Z,101121.69
2018-09-30T20:14:19.162Z,101121.31
2018-09-30T20:16:47.971Z,101130.14
2018-09-30T20:19:16.590Z,101134.34
2018-09-30T20:21:48.388Z,101126.28
2018-09-30T20:24:17.741Z,101120.09
2018-09-30T20:26:49.210Z,101118.91
2018-09-30T20:29:17.826Z,101120.55
2018-09-30T20:31:49.429Z,101117.17
2018-09-30T20:34:18.440Z,101113.03
2018-09-30T20:36:47.014Z,101111.86
2018-09-30T20:39:15.610Z,101115.81
2018-09-30T20:41:47.753Z,101112.71
2018-09-30T20:44:16.555Z,101112.48
2018-09-30T20:46:45.098Z,101111.69
2018-09-30T20:49:17.000Z,101115.58
2018-09-30T20:51:48.934Z,101112.66
2018-09-30T20:54:17.481Z,101108.97
2018-09-30T20:56:46.491Z,101112.20
2018-09-30T20:59:20.102Z,101118.15
2018-09-30T21:01:48.841Z,101111.37
2018-09-30T21:04:17.451Z,101118.41
2018-09-30T21:06:46.473Z,101118.72
2018-09-30T21:09:16.710Z,101119.17
2018-09-30T21:11:45.234Z,101122.34
2018-09-30T21:14:13.834Z,101108.41
2018-09-30T21:16:44.951Z,101117.48
2018-09-30T21:19:13.670Z,101108.39
2018-09-30T21:21:42.284Z,101112.52
2018-09-30T21:24:10.826Z,101110.41
2018-09-30T21:26:39.453Z,101108.44
2018-09-30T21:29:10.984Z,101110.87
2018-09-30T21:31:39.813Z,101110.02
2018-09-30T21:34:10.360Z,101108.56
2018-09-30T21:36:39.101Z,101105.39
2018-09-30T21:39:11.557Z,101109.05
2018-09-30T21:41:40.285Z,101107.77
2018-09-30T21:44:15.237Z,101102.00
2018-09-30T21:46:43.836Z,101105.11
2018-09-30T21:49:12.429Z,101099.62
2018-09-30T21:51:40.959Z,101095.56
2018-09-30T21:54:09.532Z,101099.38
2018-09-30T21:56:38.335Z,101089.73
2018-09-30T21:59:13.987Z,101089.09
2018-09-30T22:01:42.665Z,101087.82
2018-09-30T22:04:11.169Z,101087.14
2018-09-30T22:06:39.848Z,101087.87
2018-09-30T22:09:08.422Z,101085.05
2018-09-30T22:11:39.083Z,101085.36
2018-09-30T22:14:07.997Z,101087.63
2018-09-30T22:16:36.547Z,101091.88
2018-09-30T22:19:05.445Z,101095.95
2018-09-30T22:21:34.115Z,101093.83
2018-09-30T22:24:07.298Z,101088.27
2018-09-30T22:26:35.820Z,101097.44
2018-09-30T22:29:05.243Z,101093.89
2018-09-30T22:31:38.867Z,101082.14
2018-09-30T22:34:07.545Z,101088.27
2018-09-30T22:36:36.178Z,101087.81
2018-09-30T22:39:06.769Z,101087.22
2018-09-30T22:41:35.448Z,101086.21
2018-09-30T22:44:05.258Z,101090.28
2018-09-30T22:46:33.732Z,101090.41
2018-09-30T22:49:03.736Z,101089.91
2018-09-30T22:51:32.644Z,101084.03
2018-09-30T22:54:03.717Z,101076.53
2018-09-30T22:56:32.252Z,101077.77
2018-09-30T22:59:00.973Z,101082.41
2018-09-30T23:01:29.499Z,101074.75
2018-09-30T23:03:58.526Z,101070.69
2018-09-30T23:06:27.194Z,101069.44
2018-09-30T23:08:55.797Z,101072.09
2018-09-30T23:11:24.316Z,101069.84
2018-09-30T23:13:52.949Z,101069.48
2018-09-30T23:16:21.467Z,101072.19
2018-09-30T23:18:49.991Z,101069.11
2018-09-30T23:21:18.552Z,101059.92
2018-09-30T23:23:47.048Z,101069.30
2018-09-30T23:26:15.592Z,101059.92
2018-09-30T23:28:44.215Z,101063.62
2018-09-30T23:31:12.772Z,101059.64
2018-09-30T23:33:41.288Z,101065.70
2018-09-30T23:36:09.815Z,101069.77
2018-09-30T23:38:38.373Z,101069.16
2018-09-30T23:41:07.301Z,101060.89
2018-09-30T23:43:35.875Z,101072.27
2018-09-30T23:46:05.228Z,101071.37
2018-09-30T23:48:33.787Z,101072.00
2018-09-30T23:51:04.631Z,101080.58
2018-09-30T23:53:33.195Z,101067.99
2018-09-30T23:56:03.091Z,101069.16
2018-09-30T23:58:31.645Z,101063.36
